createdAt,value
2022-12-03T00:03:42.141Z,7.14
2022-12-03T00:13:43.677Z,7.00
2022-12-03T00:23:45.105Z,6.83
2022-12-03T00:33:46.562Z,6.60
2022-12-03T00:43:48.029Z,6.64
2022-12-03T00:53:49.576Z,6.73
2022-12-03T01:03:51.052Z,6.71
2022-12-03T01:13:53.696Z,6.85
2022-12-03T01:23:55.429Z,6.85
2022-12-03T01:33:56.876Z,6.77
2022-12-03T01:43:58.960Z,6.82
2022-12-03T01:54:01.859Z,6.93
2022-12-03T02:04:03.487Z,6.96
2022-12-03T02:14:11.811Z,6.98
2022-12-03T02:24:34.982Z,6.93
2022-12-03T02:34:44.767Z,7.00
2022-12-03T02:44:46.296Z,6.76
2022-12-03T02:54:49.395Z,6.81
2022-12-03T03:04:51.268Z,7.08
2022-12-03T03:14:53.325Z,7.02
2022-12-03T03:24:55.167Z,6.86
2022-12-03T03:34:57.228Z,6.98
2022-12-03T03:44:59.052Z,7.01
2022-12-03T03:55:00.611Z,6.94
2022-12-03T04:05:02.302Z,6.89
2022-12-03T04:15:05.322Z,6.74
2022-12-03T04:25:27.387Z,6.94
2022-12-03T04:35:43.940Z,6.90
2022-12-03T04:45:45.551Z,6.96
2022-12-03T04:55:47.073Z,6.66
2022-12-03T05:05:48.756Z,6.77
2022-12-03T05:15:50.204Z,6.88
2022-12-03T05:25:51.675Z,7.01
2022-12-03T05:35:53.113Z,6.99
2022-12-03T05:45:54.629Z,7.04
2022-12-03T05:55:56.162Z,6.83
2022-12-03T06:05:57.612Z,6.82
2022-12-03T06:16:00.948Z,6.91
2022-12-03T06:26:02.878Z,6.74
2022-12-03T06:36:04.929Z,6.79
2022-12-03T06:46:06.427Z,6.83
2022-12-03T06:56:08.033Z,6.66
2022-12-03T07:06:09.560Z,6.44
2022-12-03T07:16:11.060Z,6.42
2022-12-03T07:26:12.561Z,6.27
2022-12-03T07:36:14.013Z,6.01
2022-12-03T07:46:15.655Z,6.26
2022-12-03T07:56:17.137Z,6.64
2022-12-03T08:06:18.589Z,6.57
2022-12-03T08:16:22.041Z,6.70
2022-12-03T08:26:28.021Z,6.62
2022-12-03T08:36:31.271Z,6.70
2022-12-03T08:46:32.711Z,6.87
2022-12-03T08:56:36.859Z,6.92
2022-12-03T09:06:38.338Z,6.89
2022-12-03T09:16:40.855Z,7.09
2022-12-03T09:26:42.393Z,7.19
2022-12-03T09:36:43.907Z,7.15
2022-12-03T09:46:46.286Z,7.11
2022-12-03T09:56:47.743Z,7.12
2022-12-03T10:06:49.299Z,6.87
2022-12-03T10:16:50.962Z,7.12
2022-12-03T10:26:55.486Z,7.33
2022-12-03T10:37:15.359Z,7.37
2022-12-03T10:47:16.913Z,7.34
2022-12-03T10:57:18.503Z,7.52
2022-12-03T11:07:22.022Z,7.57
2022-12-03T11:17:44.947Z,7.47
2022-12-03T11:28:12.324Z,6.58
2022-12-03T11:38:38.488Z,6.63
2022-12-03T11:48:45.521Z,6.73
2022-12-03T11:58:47.472Z,6.56
2022-12-03T12:08:51.953Z,6.33
2022-12-03T12:18:55.378Z,6.46
2022-12-03T12:28:57.275Z,6.94
2022-12-03T12:38:59.706Z,6.93
2022-12-03T12:49:01.255Z,6.60
2022-12-03T12:59:12.496Z,6.70
2022-12-03T13:09:15.228Z,6.70
2022-12-03T13:19:25.176Z,6.78
2022-12-03T13:29:27.809Z,7.20
2022-12-03T13:39:37.819Z,7.18
2022-12-03T13:49:39.456Z,7.26
2022-12-03T13:59:40.912Z,6.35
2022-12-03T14:09:42.363Z,6.31
2022-12-03T14:20:01.932Z,6.39
2022-12-03T14:30:04.945Z,6.69
2022-12-03T14:40:08.978Z,6.13
2022-12-03T14:50:14.207Z,6.38
2022-12-03T15:00:16.549Z,6.33
2022-12-03T15:10:18.012Z,6.19
2022-12-03T15:20:19.556Z,6.26
2022-12-03T15:30:21.023Z,6.06
2022-12-03T15:40:22.515Z,6.10
2022-12-03T15:50:24.192Z,6.00
2022-12-03T16:00:25.685Z,6.12
2022-12-03T16:10:27.142Z,5.49
2022-12-03T16:20:28.720Z,5.56
2022-12-03T16:30:30.232Z,5.35
2022-12-03T16:40:31.730Z,5.93
2022-12-03T16:50:33.329Z,5.75
2022-12-03T17:00:35.060Z,5.87
2022-12-03T17:10:36.665Z,5.88
2022-12-03T17:20:38.511Z,5.75
2022-12-03T17:30:40.044Z,6.21
2022-12-03T17:40:41.538Z,6.50
2022-12-03T17:50:43.112Z,6.59
2022-12-03T18:00:44.727Z,6.53
2022-12-03T18:10:46.259Z,6.69
2022-12-03T18:20:48.000Z,6.68
2022-12-03T18:30:52.751Z,6.71
2022-12-03T18:40:56.620Z,6.63
2022-12-03T18:50:58.082Z,6.71
2022-12-03T19:00:59.617Z,6.81
2022-12-03T19:11:01.147Z,6.70
2022-12-03T19:21:08.068Z,6.68
2022-12-03T19:31:13.371Z,6.62
2022-12-03T19:41:15.271Z,6.59
2022-12-03T19:51:33.687Z,6.62
2022-12-03T20:01:36.660Z,6.72
2022-12-03T20:11:39.289Z,6.70
2022-12-03T20:21:41.803Z,6.73
2022-12-03T20:31:43.632Z,6.78
2022-12-03T20:41:45.193Z,6.70
2022-12-03T20:51:49.930Z,6.74
2022-12-03T21:01:51.487Z,6.90
2022-12-03T21:11:53.017Z,6.88
2022-12-03T21:21:54.515Z,6.76
2022-12-03T21:31:55.948Z,6.71
2022-12-03T21:42:18.714Z,6.72
2022-12-03T21:52:19.601Z,6.64
2022-12-03T22:02:21.898Z,6.37
2022-12-03T22:12:23.541Z,6.30
2022-12-03T22:22:24.973Z,6.45
2022-12-03T22:32:26.527Z,6.68
2022-12-03T22:42:28.051Z,6.56
2022-12-03T22:52:30.235Z,6.43
2022-12-03T23:02:31.733Z,6.61
2022-12-03T23:12:33.298Z,6.72
2022-12-03T23:22:34.774Z,6.69
2022-12-03T23:32:36.695Z,6.58
2022-12-03T23:42:38.307Z,6.74
2022-12-03T23:52:39.967Z,6.52
